createdAt,value
2022-07-30T00:00:37.365Z,97.18
2022-07-30T00:03:05.679Z,97.17
2022-07-30T00:05:33.814Z,97.35
2022-07-30T00:08:01.786Z,97.43
2022-07-30T00:10:29.850Z,97.51
2022-07-30T00:12:57.873Z,97.41
2022-07-30T00:15:25.813Z,97.41
2022-07-30T00:17:53.967Z,97.85
2022-07-30T00:20:23.153Z,97.98
2022-07-30T00:22:56.333Z,97.94
2022-07-30T00:25:24.362Z,97.96
2022-07-30T00:27:52.606Z,98.01
2022-07-30T00:30:21.752Z,97.87
2022-07-30T00:32:49.981Z,98.25
2022-07-30T00:35:18.044Z,98.42
2022-07-30T00:37:46.439Z,98.39
2022-07-30T00:40:14.629Z,98.51
2022-07-30T00:42:47.818Z,98.58
2022-07-30T00:45:17.308Z,98.50
2022-07-30T00:47:46.090Z,98.62
2022-07-30T00:50:15.388Z,98.77
2022-07-30T00:52:44.686Z,98.73
2022-07-30T00:55:15.249Z,98.60
2022-07-30T00:57:43.799Z,98.68
2022-07-30T01:00:15.170Z,99.06
2022-07-30T01:02:44.132Z,99.38
2022-07-30T01:05:12.218Z,99.23
2022-07-30T01:07:40.294Z,99.49
2022-07-30T01:10:10.440Z,99.23
2022-07-30T01:12:38.904Z,99.12
2022-07-30T01:15:09.160Z,99.12
2022-07-30T01:17:37.851Z,99.01
2022-07-30T01:20:33.821Z,99.06
2022-07-30T01:23:31.284Z,98.97
2022-07-30T01:26:14.410Z,99.22
2022-07-30T01:28:54.469Z,99.19
2022-07-30T01:31:26.929Z,99.22
2022-07-30T01:33:56.933Z,99.18
2022-07-30T01:36:28.544Z,99.49
2022-07-30T01:38:57.531Z,99.48
2022-07-30T01:41:27.103Z,99.49
2022-07-30T01:43:56.148Z,99.43
2022-07-30T01:46:26.295Z,99.52
2022-07-30T01:48:57.693Z,99.61
2022-07-30T01:51:27.588Z,99.78
2022-07-30T01:54:10.899Z,99.66
2022-07-30T01:56:40.953Z,99.66
2022-07-30T01:59:10.602Z,99.86
2022-07-30T02:01:38.708Z,99.71
2022-07-30T02:04:06.695Z,99.65
2022-07-30T02:06:42.273Z,99.72
2022-07-30T02:09:17.410Z,99.79
2022-07-30T02:12:07.854Z,99.99
2022-07-30T02:14:50.535Z,99.99
2022-07-30T02:17:39.687Z,99.84
2022-07-30T02:20:14.701Z,99.94
2022-07-30T02:22:46.180Z,99.76
2022-07-30T02:25:21.073Z,99.99
2022-07-30T02:27:54.577Z,99.99
2022-07-30T02:30:30.339Z,99.99
2022-07-30T02:33:05.075Z,99.99
2022-07-30T02:35:34.117Z,99.99
2022-07-30T02:38:03.687Z,99.99
2022-07-30T02:40:32.865Z,99.99
2022-07-30T02:43:01.989Z,99.99
2022-07-30T02:45:31.567Z,99.99
2022-07-30T02:48:06.580Z,99.99
2022-07-30T02:50:35.854Z,99.99
2022-07-30T02:53:06.866Z,99.99
2022-07-30T02:55:36.206Z,99.99
2022-07-30T02:58:05.800Z,99.99
2022-07-30T03:00:35.509Z,99.99
2022-07-30T03:03:07.210Z,99.99
2022-07-30T03:05:40.140Z,99.99
2022-07-30T03:08:08.966Z,99.99
2022-07-30T03:10:38.615Z,99.99
2022-07-30T03:13:07.886Z,99.99
2022-07-30T03:15:45.993Z,99.99
2022-07-30T03:18:16.735Z,99.99
2022-07-30T03:20:48.756Z,99.99
2022-07-30T03:23:19.249Z,99.99
2022-07-30T03:25:54.822Z,99.99
2022-07-30T03:28:27.449Z,99.99
2022-07-30T03:30:56.953Z,99.99
2022-07-30T03:33:38.321Z,99.99
2022-07-30T03:36:08.428Z,99.99
2022-07-30T03:38:39.329Z,99.99
2022-07-30T03:41:12.136Z,99.99
2022-07-30T03:43:43.091Z,99.99
2022-07-30T03:46:12.163Z,99.99
2022-07-30T03:48:43.734Z,99.99
2022-07-30T03:51:12.966Z,99.99
2022-07-30T03:53:43.188Z,99.99
2022-07-30T03:56:29.723Z,99.99
2022-07-30T03:58:57.843Z,99.99
2022-07-30T04:01:27.525Z,99.99
2022-07-30T04:04:10.785Z,99.99
2022-07-30T04:06:41.110Z,99.99
2022-07-30T04:09:12.870Z,99.99
2022-07-30T04:11:41.979Z,99.99
2022-07-30T04:14:17.581Z,99.99
2022-07-30T04:17:36.951Z,99.72
2022-07-30T04:20:09.992Z,99.55
2022-07-30T04:22:39.163Z,99.43
2022-07-30T04:25:09.424Z,99.34
2022-07-30T04:27:39.768Z,99.01
2022-07-30T04:30:28.544Z,97.31
2022-07-30T04:32:56.466Z,95.73
2022-07-30T04:35:50.272Z,93.80
2022-07-30T04:38:33.855Z,91.79
2022-07-30T04:41:02.137Z,89.75
2022-07-30T04:43:39.693Z,87.85
2022-07-30T04:46:08.771Z,87.38
2022-07-30T04:48:36.937Z,85.66
2022-07-30T04:51:25.911Z,84.80
2022-07-30T04:53:57.534Z,83.00
2022-07-30T04:56:28.841Z,81.86
2022-07-30T04:58:57.566Z,80.95
2022-07-30T05:01:40.345Z,80.20
2022-07-30T05:04:10.825Z,78.71
2022-07-30T05:06:42.819Z,76.89
2022-07-30T05:09:12.122Z,77.78
2022-07-30T05:11:40.050Z,75.59
2022-07-30T05:14:08.092Z,75.96
2022-07-30T05:16:37.852Z,73.35
2022-07-30T05:19:07.569Z,73.77
2022-07-30T05:21:37.022Z,71.26
2022-07-30T05:24:06.452Z,72.04
2022-07-30T05:26:50.564Z,71.49
2022-07-30T05:29:20.464Z,71.19
2022-07-30T05:31:56.106Z,70.07
2022-07-30T05:34:30.766Z,69.57
2022-07-30T05:37:00.056Z,69.21
2022-07-30T05:39:28.384Z,68.67
2022-07-30T05:42:14.721Z,67.81
2022-07-30T05:44:47.993Z,66.50
2022-07-30T05:47:16.225Z,66.54
2022-07-30T05:49:47.324Z,65.47
2022-07-30T05:52:16.310Z,65.47
2022-07-30T05:54:44.800Z,65.68
2022-07-30T05:57:31.446Z,65.70
2022-07-30T06:00:00.799Z,64.73
2022-07-30T06:02:44.861Z,65.70
2022-07-30T06:05:28.276Z,65.26
2022-07-30T06:07:59.733Z,65.46
2022-07-30T06:10:29.975Z,64.52
2022-07-30T06:12:58.065Z,66.35
2022-07-30T06:15:26.896Z,64.60
2022-07-30T06:18:01.731Z,65.24
2022-07-30T06:20:42.074Z,63.76
2022-07-30T06:23:26.216Z,61.92
2022-07-30T06:26:15.116Z,61.97
2022-07-30T06:28:42.952Z,63.66
2022-07-30T06:31:17.564Z,63.00
2022-07-30T06:33:45.481Z,62.87
2022-07-30T06:36:14.473Z,62.06
2022-07-30T06:39:14.619Z,62.52
2022-07-30T06:42:25.473Z,62.13
2022-07-30T06:45:21.541Z,61.66
2022-07-30T06:48:16.586Z,60.58
2022-07-30T06:50:44.916Z,60.88
2022-07-30T06:53:15.727Z,60.73
2022-07-30T06:56:03.780Z,61.16
2022-07-30T06:58:41.925Z,60.81
2022-07-30T07:01:28.307Z,60.96
2022-07-30T07:03:57.723Z,60.52
2022-07-30T07:06:25.979Z,60.34
2022-07-30T07:08:54.076Z,63.59
2022-07-30T07:11:31.002Z,61.83
2022-07-30T07:14:04.736Z,61.79
2022-07-30T07:16:35.950Z,61.16
2022-07-30T07:19:59.810Z,61.67
2022-07-30T07:22:12.478Z,60.37
2022-07-30T07:24:41.783Z,59.65
2022-07-30T07:27:15.915Z,58.23
2022-07-30T07:30:04.627Z,56.87
2022-07-30T07:32:36.670Z,56.71
2022-07-30T07:35:06.775Z,58.14
2022-07-30T07:37:41.372Z,56.66
2022-07-30T07:40:13.115Z,55.03
2022-07-30T07:42:48.019Z,55.31
2022-07-30T07:45:19.596Z,54.54
2022-07-30T07:48:16.783Z,53.55
2022-07-30T07:50:57.019Z,54.61
2022-07-30T07:53:32.427Z,54.84
2022-07-30T07:56:01.865Z,55.68
2022-07-30T07:58:30.977Z,56.06
2022-07-30T08:01:02.460Z,55.95
2022-07-30T08:04:10.220Z,55.69
2022-07-30T08:06:57.482Z,54.98
2022-07-30T08:09:45.076Z,55.38
2022-07-30T08:12:39.595Z,58.66
2022-07-30T08:15:46.433Z,56.65
2022-07-30T08:18:40.833Z,52.79
2022-07-30T08:21:21.877Z,53.04
2022-07-30T08:23:49.984Z,51.92
2022-07-30T08:26:21.321Z,54.33
2022-07-30T08:28:49.605Z,57.54
2022-07-30T08:31:21.194Z,58.18
2022-07-30T08:33:52.329Z,54.89
2022-07-30T08:36:24.088Z,54.01
2022-07-30T08:38:54.665Z,55.38
2022-07-30T08:41:24.342Z,55.31
2022-07-30T08:43:53.522Z,54.39
2022-07-30T08:46:27.620Z,55.78
2022-07-30T08:49:07.542Z,55.17
2022-07-30T08:51:45.193Z,54.32
2022-07-30T08:54:29.367Z,53.00
2022-07-30T08:57:08.363Z,52.17
2022-07-30T09:00:00.711Z,52.34
2022-07-30T09:02:33.092Z,51.12
2022-07-30T09:05:06.585Z,53.61
2022-07-30T09:07:36.211Z,52.11
2022-07-30T09:10:12.146Z,53.03
2022-07-30T09:12:45.059Z,52.35
2022-07-30T09:15:20.714Z,51.57
2022-07-30T09:18:02.194Z,52.00
2022-07-30T09:20:37.215Z,50.42
2022-07-30T09:23:09.270Z,49.10
2022-07-30T09:25:59.035Z,49.81
2022-07-30T09:29:17.882Z,49.76
2022-07-30T09:32:16.408Z,52.81
2022-07-30T09:35:14.960Z,53.05
2022-07-30T09:38:09.994Z,52.94
2022-07-30T09:40:57.510Z,52.87
2022-07-30T09:43:50.585Z,50.66
2022-07-30T09:46:47.769Z,49.43
2022-07-30T09:49:27.670Z,47.08
2022-07-30T09:51:57.805Z,48.59
2022-07-30T09:54:53.253Z,49.99
2022-07-30T09:57:27.502Z,48.57
2022-07-30T10:00:25.746Z,43.20
2022-07-30T10:03:38.554Z,48.12
2022-07-30T10:06:41.916Z,46.98
2022-07-30T10:09:37.811Z,46.29
2022-07-30T10:12:12.492Z,44.66
2022-07-30T10:14:49.868Z,45.34
2022-07-30T10:17:21.951Z,47.44
2022-07-30T10:20:19.592Z,48.38
2022-07-30T10:23:15.646Z,46.74
2022-07-30T10:26:20.025Z,45.69
2022-07-30T10:29:18.446Z,43.97
2022-07-30T10:31:54.171Z,45.56
2022-07-30T10:34:23.804Z,45.76
2022-07-30T10:37:04.869Z,45.44
2022-07-30T10:39:47.118Z,46.53
2022-07-30T10:42:26.091Z,45.06
2022-07-30T10:45:28.708Z,43.98
2022-07-30T10:47:58.069Z,45.62
2022-07-30T10:50:29.218Z,45.85
2022-07-30T10:53:01.721Z,46.46
2022-07-30T10:55:39.042Z,44.98
2022-07-30T10:58:15.493Z,44.98
2022-07-30T11:00:53.441Z,45.31
2022-07-30T11:03:40.037Z,43.55
2022-07-30T11:06:24.048Z,42.76
2022-07-30T11:08:57.304Z,43.83
2022-07-30T11:12:04.813Z,43.15
2022-07-30T11:14:20.349Z,43.65
2022-07-30T11:16:52.950Z,44.48
2022-07-30T11:19:56.986Z,44.53
2022-07-30T11:22:32.984Z,42.87
2022-07-30T11:25:02.844Z,44.90
2022-07-30T11:27:50.488Z,44.98
2022-07-30T11:30:21.090Z,45.52
2022-07-30T11:32:57.025Z,46.42
2022-07-30T11:35:34.537Z,46.08
2022-07-30T11:38:19.909Z,46.18
2022-07-30T11:40:50.846Z,45.98
2022-07-30T11:43:36.327Z,45.38
2022-07-30T11:46:10.491Z,45.07
2022-07-30T11:48:47.222Z,45.80
2022-07-30T11:51:15.516Z,44.34
2022-07-30T11:53:46.070Z,44.79
2022-07-30T11:56:16.724Z,45.35
2022-07-30T11:58:45.438Z,47.94
2022-07-30T12:01:16.185Z,45.29
2022-07-30T12:03:47.817Z,46.09
2022-07-30T12:06:23.464Z,46.48
2022-07-30T12:08:58.256Z,44.52
2022-07-30T12:11:35.658Z,46.33
2022-07-30T12:14:05.856Z,45.65
2022-07-30T12:16:34.736Z,46.19
2022-07-30T12:19:06.166Z,45.86
2022-07-30T12:21:34.903Z,45.50
2022-07-30T12:24:10.305Z,45.05
2022-07-30T12:26:38.883Z,44.49
2022-07-30T12:29:13.620Z,44.00
2022-07-30T12:31:42.829Z,44.24
2022-07-30T12:34:20.862Z,44.91
2022-07-30T12:36:49.077Z,45.39
2022-07-30T12:39:25.056Z,45.10
2022-07-30T12:41:56.116Z,44.86
2022-07-30T12:44:44.675Z,47.02
2022-07-30T12:47:27.638Z,47.20
2022-07-30T12:50:01.642Z,46.47
2022-07-30T12:52:34.502Z,46.20
2022-07-30T12:55:09.026Z,46.55
2022-07-30T12:57:53.546Z,46.64
2022-07-30T13:00:26.365Z,45.76
2022-07-30T13:02:55.183Z,45.62
2022-07-30T13:05:43.835Z,45.90
2022-07-30T13:08:12.150Z,46.24
2022-07-30T13:10:53.867Z,46.42
2022-07-30T13:13:21.777Z,45.19
2022-07-30T13:16:01.319Z,44.24
2022-07-30T13:18:31.274Z,44.46
2022-07-30T13:21:00.798Z,45.54
2022-07-30T13:23:32.261Z,45.93
2022-07-30T13:26:00.474Z,46.26
2022-07-30T13:28:28.451Z,46.81
2022-07-30T13:30:57.906Z,45.84
2022-07-30T13:33:26.420Z,46.77
2022-07-30T13:35:54.630Z,46.07
2022-07-30T13:38:22.524Z,47.43
2022-07-30T13:40:50.942Z,45.58
2022-07-30T13:43:21.619Z,45.96
2022-07-30T13:45:52.643Z,46.32
2022-07-30T13:48:20.833Z,45.18
2022-07-30T13:50:48.997Z,45.97
2022-07-30T13:53:17.031Z,45.19
2022-07-30T13:55:46.580Z,45.54
2022-07-30T13:58:15.210Z,45.70
2022-07-30T14:00:45.185Z,45.68
2022-07-30T14:03:13.408Z,46.22
2022-07-30T14:05:41.997Z,46.71
2022-07-30T14:08:12.125Z,45.91
2022-07-30T14:10:40.940Z,46.18
2022-07-30T14:13:10.458Z,46.82
2022-07-30T14:15:44.034Z,46.85
2022-07-30T14:18:11.871Z,46.62
2022-07-30T14:20:39.965Z,45.88
2022-07-30T14:23:10.532Z,46.32
2022-07-30T14:25:47.148Z,46.73
2022-07-30T14:28:17.599Z,47.21
2022-07-30T14:30:45.719Z,47.04
2022-07-30T14:33:13.702Z,47.14
2022-07-30T14:35:41.814Z,47.36
2022-07-30T14:38:09.655Z,46.96
2022-07-30T14:40:38.686Z,47.88
2022-07-30T14:43:06.723Z,48.85
2022-07-30T14:45:38.851Z,48.87
2022-07-30T14:48:06.986Z,49.10
2022-07-30T14:50:56.952Z,49.55
2022-07-30T14:53:26.161Z,49.62
2022-07-30T14:55:54.019Z,48.77
2022-07-30T14:58:22.012Z,48.45
2022-07-30T15:00:49.836Z,47.80
2022-07-30T15:03:18.131Z,48.01
2022-07-30T15:05:51.689Z,47.09
2022-07-30T15:08:20.600Z,47.48
2022-07-30T15:10:48.679Z,47.35
2022-07-30T15:13:16.641Z,47.50
2022-07-30T15:15:46.296Z,48.22
2022-07-30T15:18:14.730Z,47.24
2022-07-30T15:20:42.812Z,47.22
2022-07-30T15:23:13.536Z,47.76
2022-07-30T15:25:42.183Z,47.73
2022-07-30T15:28:10.272Z,47.48
2022-07-30T15:30:38.310Z,48.10
2022-07-30T15:33:08.284Z,48.08
2022-07-30T15:35:36.589Z,48.96
2022-07-30T15:38:05.269Z,49.65
2022-07-30T15:40:35.148Z,49.91
2022-07-30T15:43:07.783Z,49.52
2022-07-30T15:45:55.657Z,50.83
2022-07-30T15:48:27.375Z,50.52
2022-07-30T15:51:06.359Z,50.15
2022-07-30T15:53:34.883Z,49.88
2022-07-30T15:56:03.152Z,49.88
2022-07-30T15:58:31.385Z,50.10
2022-07-30T16:00:59.590Z,50.24
2022-07-30T16:03:27.866Z,50.68
2022-07-30T16:05:55.801Z,50.65
2022-07-30T16:08:23.861Z,50.66
2022-07-30T16:10:52.033Z,50.98
2022-07-30T16:13:19.966Z,50.74
2022-07-30T16:15:47.905Z,51.33
2022-07-30T16:18:15.802Z,51.57
2022-07-30T16:20:43.807Z,51.86
2022-07-30T16:23:14.130Z,52.04
2022-07-30T16:25:45.270Z,52.47
2022-07-30T16:28:13.439Z,52.48
2022-07-30T16:30:50.715Z,51.71
2022-07-30T16:33:20.659Z,51.32
2022-07-30T16:35:50.973Z,51.67
2022-07-30T16:38:21.077Z,51.06
2022-07-30T16:40:49.609Z,51.08
2022-07-30T16:43:19.581Z,51.60
2022-07-30T16:45:49.294Z,51.55
2022-07-30T16:48:17.474Z,51.40
2022-07-30T16:50:45.943Z,52.25
2022-07-30T16:53:14.739Z,52.25
2022-07-30T16:55:43.930Z,51.01
2022-07-30T16:58:12.949Z,51.91
2022-07-30T17:00:41.264Z,51.51
2022-07-30T17:03:09.715Z,52.03
2022-07-30T17:05:45.231Z,52.36
2022-07-30T17:08:14.632Z,52.37
2022-07-30T17:10:47.781Z,52.47
2022-07-30T17:13:19.703Z,52.81
2022-07-30T17:15:51.249Z,53.00
2022-07-30T17:18:19.634Z,51.31
2022-07-30T17:20:47.691Z,51.54
2022-07-30T17:23:15.957Z,52.43
2022-07-30T17:25:44.031Z,52.62
2022-07-30T17:28:12.307Z,53.17
2022-07-30T17:30:40.762Z,53.61
2022-07-30T17:33:08.860Z,54.11
2022-07-30T17:35:37.763Z,54.05
2022-07-30T17:38:07.396Z,53.76
2022-07-30T17:40:35.946Z,55.00
2022-07-30T17:43:04.927Z,54.37
2022-07-30T17:45:34.705Z,55.08
2022-07-30T17:48:06.538Z,54.50
2022-07-30T17:50:35.397Z,54.85
2022-07-30T17:53:06.471Z,54.31
2022-07-30T17:55:37.803Z,54.08
2022-07-30T17:58:06.376Z,53.72
2022-07-30T18:00:35.394Z,54.31
2022-07-30T18:03:03.797Z,54.74
2022-07-30T18:05:32.214Z,54.91
2022-07-30T18:08:00.589Z,54.54
2022-07-30T18:10:28.677Z,55.71
2022-07-30T18:12:57.257Z,55.29
2022-07-30T18:15:26.077Z,53.22
2022-07-30T18:17:54.092Z,53.82
2022-07-30T18:20:22.056Z,54.46
2022-07-30T18:22:51.735Z,54.49
2022-07-30T18:25:20.023Z,53.94
2022-07-30T18:27:48.746Z,54.74
2022-07-30T18:30:16.936Z,53.95
2022-07-30T18:32:45.610Z,54.78
2022-07-30T18:35:15.470Z,55.64
2022-07-30T18:37:45.295Z,56.67
2022-07-30T18:40:24.130Z,56.30
2022-07-30T18:42:53.303Z,56.15
2022-07-30T18:45:23.119Z,55.94
2022-07-30T18:47:51.100Z,56.27
2022-07-30T18:50:30.169Z,56.23
2022-07-30T18:53:15.527Z,56.11
2022-07-30T18:55:47.669Z,57.07
2022-07-30T18:58:15.835Z,57.89
2022-07-30T19:00:46.567Z,58.68
2022-07-30T19:03:22.442Z,59.22
2022-07-30T19:05:54.035Z,59.60
2022-07-30T19:08:25.595Z,59.96
2022-07-30T19:10:54.430Z,60.07
2022-07-30T19:13:24.124Z,60.28
2022-07-30T19:15:54.472Z,60.38
2022-07-30T19:18:23.892Z,60.44
2022-07-30T19:20:52.031Z,60.22
2022-07-30T19:23:19.976Z,60.85
2022-07-30T19:25:47.969Z,60.82
2022-07-30T19:28:19.370Z,61.12
2022-07-30T19:30:49.972Z,61.18
2022-07-30T19:33:17.916Z,61.58
2022-07-30T19:35:47.360Z,61.43
2022-07-30T19:38:21.778Z,61.60
2022-07-30T19:40:50.878Z,61.73
2022-07-30T19:43:24.291Z,61.96
2022-07-30T19:45:58.470Z,62.54
2022-07-30T19:48:36.068Z,62.34
2022-07-30T19:51:05.891Z,62.53
2022-07-30T19:53:44.628Z,62.56
2022-07-30T19:56:13.453Z,62.78
2022-07-30T19:58:42.482Z,62.78
2022-07-30T20:01:14.572Z,62.91
2022-07-30T20:04:07.501Z,62.93
2022-07-30T20:07:00.510Z,62.95
2022-07-30T20:09:28.576Z,63.02
2022-07-30T20:11:58.901Z,63.22
2022-07-30T20:14:27.884Z,63.49
2022-07-30T20:16:56.057Z,63.74
2022-07-30T20:19:26.643Z,64.01
2022-07-30T20:22:04.283Z,64.23
2022-07-30T20:24:32.452Z,64.41
2022-07-30T20:27:01.732Z,64.50
2022-07-30T20:29:49.890Z,64.73
2022-07-30T20:32:18.385Z,64.77
2022-07-30T20:34:47.047Z,64.86
2022-07-30T20:37:22.580Z,64.80
2022-07-30T20:39:51.107Z,64.92
2022-07-30T20:42:19.166Z,65.08
2022-07-30T20:44:50.888Z,65.21
2022-07-30T20:47:34.917Z,65.28
2022-07-30T20:50:12.147Z,65.48
2022-07-30T20:52:46.744Z,65.46
2022-07-30T20:55:17.616Z,65.29
2022-07-30T20:58:01.285Z,65.29
2022-07-30T21:00:38.683Z,65.50
2022-07-30T21:03:06.914Z,65.32
2022-07-30T21:05:46.548Z,65.39
2022-07-30T21:08:18.213Z,65.49
2022-07-30T21:10:49.750Z,65.61
2022-07-30T21:13:20.941Z,65.66
2022-07-30T21:16:02.548Z,65.89
2022-07-30T21:18:31.901Z,66.04
2022-07-30T21:21:04.905Z,66.17
2022-07-30T21:23:40.439Z,66.13
2022-07-30T21:26:13.329Z,66.66
2022-07-30T21:28:42.151Z,66.57
2022-07-30T21:31:14.355Z,66.58
2022-07-30T21:33:42.634Z,66.73
2022-07-30T21:36:11.126Z,66.69
2022-07-30T21:38:49.727Z,67.05
2022-07-30T21:41:20.007Z,67.14
2022-07-30T21:44:08.267Z,67.24
2022-07-30T21:46:40.253Z,67.43
2022-07-30T21:49:10.065Z,67.66
2022-07-30T21:51:39.236Z,67.81
2022-07-30T21:54:08.192Z,67.93
2022-07-30T21:56:41.430Z,67.95
2022-07-30T21:59:09.645Z,68.15
2022-07-30T22:01:37.979Z,68.35
2022-07-30T22:04:07.524Z,68.40
2022-07-30T22:06:42.170Z,68.52
2022-07-30T22:09:19.954Z,68.47
2022-07-30T22:12:09.373Z,68.44
2022-07-30T22:14:40.810Z,68.80
2022-07-30T22:17:22.475Z,68.64
2022-07-30T22:19:54.442Z,68.58
2022-07-30T22:22:27.016Z,68.61
2022-07-30T22:24:59.896Z,68.70
2022-07-30T22:27:39.434Z,68.63
2022-07-30T22:30:10.560Z,68.64
2022-07-30T22:32:42.831Z,68.53
2022-07-30T22:35:12.017Z,68.65
2022-07-30T22:37:45.074Z,68.78
2022-07-30T22:40:14.208Z,68.87
2022-07-30T22:42:46.837Z,68.95
2022-07-30T22:45:34.018Z,69.11
2022-07-30T22:48:10.806Z,69.21
2022-07-30T22:50:40.363Z,69.39
2022-07-30T22:53:56.289Z,69.45
2022-07-30T22:55:58.640Z,69.48
2022-07-30T22:58:26.951Z,69.83
2022-07-30T23:00:55.376Z,69.89
2022-07-30T23:03:23.360Z,69.84
2022-07-30T23:05:55.333Z,69.98
2022-07-30T23:08:30.105Z,70.13
2022-07-30T23:10:59.756Z,70.48
2022-07-30T23:13:28.919Z,70.46
2022-07-30T23:15:56.923Z,70.72
2022-07-30T23:18:24.932Z,70.94
2022-07-30T23:20:54.981Z,71.07
2022-07-30T23:23:24.931Z,70.83
2022-07-30T23:25:52.738Z,71.03
2022-07-30T23:28:20.645Z,71.61
2022-07-30T23:30:49.160Z,71.29
2022-07-30T23:33:19.946Z,71.31
2022-07-30T23:35:47.852Z,71.52
2022-07-30T23:38:15.791Z,71.44
2022-07-30T23:40:43.724Z,71.53
2022-07-30T23:43:11.685Z,71.58
2022-07-30T23:45:40.438Z,71.69
2022-07-30T23:48:08.429Z,71.85
2022-07-30T23:50:36.721Z,71.92
2022-07-30T23:53:05.355Z,71.81
2022-07-30T23:55:33.510Z,71.91
2022-07-30T23:58:05.021Z,71.94
